sensor_id;sensor_type;location;lat;lon;timestamp;P1;durP1;ratioP1;P2;durP2;ratioP2
77726;SDS011;66894;51.570;7.000;2023-03-01T00:01:12;22.75;;;10.18;;
77726;SDS011;66894;51.570;7.000;2023-03-01T00:03:43;20.48;;;11.88;;
77726;SDS011;66894;51.570;7.000;2023-03-01T00:06:10;19.48;;;11.05;;
77726;SDS011;66894;51.570;7.000;2023-03-01T00:08:36;14.90;;;8.50;;
77726;SDS011;66894;51.570;7.000;2023-03-01T00:11:07;15.27;;;8.07;;
77726;SDS011;66894;51.570;7.000;2023-03-01T00:13:46;19.60;;;8.40;;
77726;SDS011;66894;51.570;7.000;2023-03-01T00:16:17;15.75;;;7.97;;
77726;SDS011;66894;51.570;7.000;2023-03-01T00:18:50;9.75;;;4.97;;
77726;SDS011;66894;51.570;7.000;2023-03-01T00:21:16;18.95;;;9.18;;
77726;SDS011;66894;51.570;7.000;2023-03-01T00:23:44;20.33;;;8.35;;
77726;SDS011;66894;51.570;7.000;2023-03-01T00:26:11;22.38;;;9.75;;
77726;SDS011;66894;51.570;7.000;2023-03-01T00:28:39;16.60;;;8.18;;
77726;SDS011;66894;51.570;7.000;2023-03-01T00:31:11;19.13;;;7.45;;
77726;SDS011;66894;51.570;7.000;2023-03-01T00:33:43;16.33;;;7.95;;
77726;SDS011;66894;51.570;7.000;2023-03-01T00:36:09;15.23;;;8.43;;
77726;SDS011;66894;51.570;7.000;2023-03-01T00:38:39;12.90;;;6.80;;
77726;SDS011;66894;51.570;7.000;2023-03-01T00:41:10;15.60;;;8.02;;
77726;SDS011;66894;51.570;7.000;2023-03-01T00:43:42;13.63;;;7.50;;
77726;SDS011;66894;51.570;7.000;2023-03-01T00:46:13;12.70;;;6.90;;
77726;SDS011;66894;51.570;7.000;2023-03-01T00:48:43;16.60;;;6.45;;
77726;SDS011;66894;51.570;7.000;2023-03-01T00:51:11;16.40;;;5.93;;
77726;SDS011;66894;51.570;7.000;2023-03-01T00:53:47;11.18;;;6.05;;
77726;SDS011;66894;51.570;7.000;2023-03-01T00:56:17;11.57;;;5.97;;
77726;SDS011;66894;51.570;7.000;2023-03-01T00:58:43;16.00;;;7.38;;
77726;SDS011;66894;51.570;7.000;2023-03-01T01:01:13;15.30;;;7.05;;
77726;SDS011;66894;51.570;7.000;2023-03-01T01:03:55;11.32;;;6.43;;
77726;SDS011;66894;51.570;7.000;2023-03-01T01:06:29;15.05;;;6.35;;
77726;SDS011;66894;51.570;7.000;2023-03-01T01:08:59;15.18;;;7.57;;
77726;SDS011;66894;51.570;7.000;2023-03-01T01:11:25;13.75;;;7.03;;
77726;SDS011;66894;51.570;7.000;2023-03-01T01:13:54;13.45;;;6.93;;
77726;SDS011;66894;51.570;7.000;2023-03-01T01:16:22;21.38;;;7.22;;
77726;SDS011;66894;51.570;7.000;2023-03-01T01:18:52;6.60;;;4.20;;
77726;SDS011;66894;51.570;7.000;2023-03-01T01:21:20;13.40;;;7.07;;
77726;SDS011;66894;51.570;7.000;2023-03-01T01:23:48;21.17;;;7.10;;
77726;SDS011;66894;51.570;7.000;2023-03-01T01:26:22;12.75;;;6.93;;
77726;SDS011;66894;51.570;7.000;2023-03-01T01:28:53;14.80;;;6.60;;
77726;SDS011;66894;51.570;7.000;2023-03-01T01:31:20;10.43;;;6.38;;
77726;SDS011;66894;51.570;7.000;2023-03-01T01:33:48;13.13;;;6.30;;
77726;SDS011;66894;51.570;7.000;2023-03-01T01:36:16;10.43;;;4.93;;
77726;SDS011;66894;51.570;7.000;2023-03-01T01:38:42;11.85;;;6.32;;
77726;SDS011;66894;51.570;7.000;2023-03-01T01:41:08;13.35;;;6.75;;
77726;SDS011;66894;51.570;7.000;2023-03-01T01:43:41;10.05;;;5.35;;
77726;SDS011;66894;51.570;7.000;2023-03-01T01:46:44;11.80;;;5.18;;
77726;SDS011;66894;51.570;7.000;2023-03-01T01:52:16;11.30;;;5.35;;
77726;SDS011;66894;51.570;7.000;2023-03-01T01:57:39;9.18;;;5.25;;
77726;SDS011;66894;51.570;7.000;2023-03-01T02:00:15;12.07;;;5.40;;
77726;SDS011;66894;51.570;7.000;2023-03-01T02:02:56;11.88;;;4.85;;
77726;SDS011;66894;51.570;7.000;2023-03-01T02:05:43;11.13;;;6.30;;
77726;SDS011;66894;51.570;7.000;2023-03-01T02:08:23;11.45;;;5.93;;
77726;SDS011;66894;51.570;7.000;2023-03-01T02:13:24;9.10;;;5.00;;
77726;SDS011;66894;51.570;7.000;2023-03-01T02:15:52;8.93;;;4.15;;
77726;SDS011;66894;51.570;7.000;2023-03-01T02:18:18;8.13;;;4.90;;
77726;SDS011;66894;51.570;7.000;2023-03-01T02:23:49;11.82;;;4.97;;
77726;SDS011;66894;51.570;7.000;2023-03-01T02:28:53;10.57;;;5.05;;
77726;SDS011;66894;51.570;7.000;2023-03-01T02:31:19;9.63;;;5.57;;
77726;SDS011;66894;51.570;7.000;2023-03-01T02:34:05;6.82;;;4.18;;
77726;SDS011;66894;51.570;7.000;2023-03-01T02:36:37;9.82;;;5.28;;
77726;SDS011;66894;51.570;7.000;2023-03-01T02:39:17;11.30;;;5.80;;
77726;SDS011;66894;51.570;7.000;2023-03-01T02:41:52;11.30;;;5.88;;
77726;SDS011;66894;51.570;7.000;2023-03-01T02:44:21;17.77;;;6.00;;
77726;SDS011;66894;51.570;7.000;2023-03-01T02:46:48;12.43;;;6.15;;
77726;SDS011;66894;51.570;7.000;2023-03-01T02:49:26;9.40;;;4.55;;
77726;SDS011;66894;51.570;7.000;2023-03-01T02:55:16;8.57;;;4.00;;
77726;SDS011;66894;51.570;7.000;2023-03-01T02:57:44;11.35;;;6.07;;
77726;SDS011;66894;51.570;7.000;2023-03-01T03:00:17;13.52;;;5.28;;
77726;SDS011;66894;51.570;7.000;2023-03-01T03:02:50;12.40;;;5.78;;
77726;SDS011;66894;51.570;7.000;2023-03-01T03:05:23;12.40;;;6.00;;
77726;SDS011;66894;51.570;7.000;2023-03-01T03:07:54;8.43;;;4.20;;
77726;SDS011;66894;51.570;7.000;2023-03-01T03:10:28;14.63;;;5.28;;
77726;SDS011;66894;51.570;7.000;2023-03-01T03:13:12;11.02;;;4.55;;
77726;SDS011;66894;51.570;7.000;2023-03-01T03:15:39;10.93;;;5.03;;
77726;SDS011;66894;51.570;7.000;2023-03-01T03:18:09;8.48;;;4.82;;
77726;SDS011;66894;51.570;7.000;2023-03-01T03:20:42;9.00;;;4.13;;
77726;SDS011;66894;51.570;7.000;2023-03-01T03:23:09;10.73;;;5.13;;
77726;SDS011;66894;51.570;7.000;2023-03-01T03:25:35;6.28;;;3.47;;
77726;SDS011;66894;51.570;7.000;2023-03-01T03:28:04;7.97;;;4.07;;
77726;SDS011;66894;51.570;7.000;2023-03-01T03:30:36;8.75;;;4.50;;
77726;SDS011;66894;51.570;7.000;2023-03-01T03:33:06;9.93;;;4.72;;
77726;SDS011;66894;51.570;7.000;2023-03-01T03:35:34;9.80;;;4.88;;
77726;SDS011;66894;51.570;7.000;2023-03-01T03:38:06;8.88;;;4.68;;
77726;SDS011;66894;51.570;7.000;2023-03-01T03:40:44;9.35;;;5.50;;
77726;SDS011;66894;51.570;7.000;2023-03-01T03:43:34;9.40;;;4.53;;
77726;SDS011;66894;51.570;7.000;2023-03-01T03:46:03;7.88;;;3.65;;
77726;SDS011;66894;51.570;7.000;2023-03-01T03:48:31;9.25;;;5.25;;
77726;SDS011;66894;51.570;7.000;2023-03-01T03:51:00;12.65;;;5.75;;
77726;SDS011;66894;51.570;7.000;2023-03-01T03:53:27;12.18;;;5.80;;
77726;SDS011;66894;51.570;7.000;2023-03-01T03:55:54;7.35;;;4.18;;
77726;SDS011;66894;51.570;7.000;2023-03-01T03:58:22;8.52;;;4.68;;
77726;SDS011;66894;51.570;7.000;2023-03-01T04:00:51;14.50;;;5.80;;
77726;SDS011;66894;51.570;7.000;2023-03-01T04:03:21;12.68;;;6.15;;
77726;SDS011;66894;51.570;7.000;2023-03-01T04:05:50;13.15;;;5.78;;
77726;SDS011;66894;51.570;7.000;2023-03-01T04:08:18;10.45;;;6.28;;
77726;SDS011;66894;51.570;7.000;2023-03-01T04:10:47;9.63;;;4.88;;
77726;SDS011;66894;51.570;7.000;2023-03-01T04:13:45;10.75;;;4.82;;
77726;SDS011;66894;51.570;7.000;2023-03-01T04:16:10;8.70;;;4.70;;
77726;SDS011;66894;51.570;7.000;2023-03-01T04:18:36;8.30;;;4.32;;
77726;SDS011;66894;51.570;7.000;2023-03-01T04:21:01;13.63;;;4.90;;
77726;SDS011;66894;51.570;7.000;2023-03-01T04:23:27;8.85;;;4.45;;
77726;SDS011;66894;51.570;7.000;2023-03-01T04:25:54;6.95;;;4.40;;
77726;SDS011;66894;51.570;7.000;2023-03-01T04:28:25;11.45;;;4.53;;
77726;SDS011;66894;51.570;7.000;2023-03-01T04:31:05;10.75;;;5.30;;
77726;SDS011;66894;51.570;7.000;2023-03-01T04:33:42;7.63;;;4.40;;
77726;SDS011;66894;51.570;7.000;2023-03-01T04:36:19;8.48;;;4.35;;
77726;SDS011;66894;51.570;7.000;2023-03-01T04:38:49;12.57;;;6.07;;
77726;SDS011;66894;51.570;7.000;2023-03-01T04:41:16;11.43;;;3.92;;
77726;SDS011;66894;51.570;7.000;2023-03-01T04:43:44;9.45;;;4.28;;
77726;SDS011;66894;51.570;7.000;2023-03-01T04:46:11;9.82;;;4.75;;
77726;SDS011;66894;51.570;7.000;2023-03-01T04:48:41;5.60;;;3.38;;
77726;SDS011;66894;51.570;7.000;2023-03-01T04:51:10;11.32;;;5.93;;
77726;SDS011;66894;51.570;7.000;2023-03-01T04:53:39;11.18;;;3.80;;
77726;SDS011;66894;51.570;7.000;2023-03-01T04:56:07;8.63;;;4.13;;
77726;SDS011;66894;51.570;7.000;2023-03-01T04:58:33;12.10;;;5.82;;
77726;SDS011;66894;51.570;7.000;2023-03-01T05:00:59;11.13;;;5.07;;
77726;SDS011;66894;51.570;7.000;2023-03-01T05:03:24;11.10;;;5.55;;
77726;SDS011;66894;51.570;7.000;2023-03-01T05:05:51;7.47;;;4.20;;
77726;SDS011;66894;51.570;7.000;2023-03-01T05:08:18;9.45;;;4.40;;
77726;SDS011;66894;51.570;7.000;2023-03-01T05:10:46;10.40;;;4.65;;
77726;SDS011;66894;51.570;7.000;2023-03-01T05:13:18;6.05;;;3.75;;
77726;SDS011;66894;51.570;7.000;2023-03-01T05:15:56;9.38;;;5.30;;
77726;SDS011;66894;51.570;7.000;2023-03-01T05:18:26;9.00;;;4.25;;
77726;SDS011;66894;51.570;7.000;2023-03-01T05:21:01;8.07;;;4.65;;
77726;SDS011;66894;51.570;7.000;2023-03-01T05:23:35;8.93;;;4.40;;
77726;SDS011;66894;51.570;7.000;2023-03-01T05:26:02;10.10;;;5.35;;
77726;SDS011;66894;51.570;7.000;2023-03-01T05:28:30;11.57;;;4.57;;
77726;SDS011;66894;51.570;7.000;2023-03-01T05:30:57;7.75;;;4.32;;
77726;SDS011;66894;51.570;7.000;2023-03-01T05:33:23;11.25;;;5.55;;
77726;SDS011;66894;51.570;7.000;2023-03-01T05:35:51;16.25;;;4.85;;
77726;SDS011;66894;51.570;7.000;2023-03-01T05:38:18;10.40;;;5.90;;
77726;SDS011;66894;51.570;7.000;2023-03-01T05:40:46;9.88;;;4.03;;
77726;SDS011;66894;51.570;7.000;2023-03-01T05:43:14;10.15;;;5.45;;
77726;SDS011;66894;51.570;7.000;2023-03-01T05:45:43;11.82;;;5.40;;
77726;SDS011;66894;51.570;7.000;2023-03-01T05:48:09;10.68;;;5.35;;
77726;SDS011;66894;51.570;7.000;2023-03-01T05:50:41;11.43;;;5.47;;
77726;SDS011;66894;51.570;7.000;2023-03-01T05:53:14;8.80;;;4.63;;
77726;SDS011;66894;51.570;7.000;2023-03-01T05:55:46;13.75;;;5.47;;
77726;SDS011;66894;51.570;7.000;2023-03-01T05:58:14;10.30;;;5.63;;
77726;SDS011;66894;51.570;7.000;2023-03-01T06:00:44;11.30;;;4.55;;
77726;SDS011;66894;51.570;7.000;2023-03-01T06:03:13;9.65;;;4.90;;
77726;SDS011;66894;51.570;7.000;2023-03-01T06:05:42;10.23;;;4.57;;
77726;SDS011;66894;51.570;7.000;2023-03-01T06:08:09;11.45;;;4.72;;
77726;SDS011;66894;51.570;7.000;2023-03-01T06:10:36;13.43;;;5.00;;
77726;SDS011;66894;51.570;7.000;2023-03-01T06:13:02;7.78;;;4.75;;
77726;SDS011;66894;51.570;7.000;2023-03-01T06:15:28;8.13;;;4.68;;
77726;SDS011;66894;51.570;7.000;2023-03-01T06:17:54;8.95;;;4.80;;
77726;SDS011;66894;51.570;7.000;2023-03-01T06:20:25;11.75;;;5.82;;
77726;SDS011;66894;51.570;7.000;2023-03-01T06:22:53;11.05;;;5.82;;
77726;SDS011;66894;51.570;7.000;2023-03-01T06:25:20;9.82;;;4.93;;
77726;SDS011;66894;51.570;7.000;2023-03-01T06:27:50;8.43;;;4.80;;
77726;SDS011;66894;51.570;7.000;2023-03-01T06:30:20;11.90;;;5.70;;
77726;SDS011;66894;51.570;7.000;2023-03-01T06:32:50;12.50;;;5.72;;
77726;SDS011;66894;51.570;7.000;2023-03-01T06:35:16;7.15;;;3.45;;
77726;SDS011;66894;51.570;7.000;2023-03-01T06:37:44;10.23;;;6.00;;
77726;SDS011;66894;51.570;7.000;2023-03-01T06:40:12;17.27;;;5.00;;
77726;SDS011;66894;51.570;7.000;2023-03-01T06:42:39;10.40;;;5.53;;
77726;SDS011;66894;51.570;7.000;2023-03-01T06:45:08;13.65;;;5.22;;
77726;SDS011;66894;51.570;7.000;2023-03-01T06:47:35;9.18;;;5.20;;
77726;SDS011;66894;51.570;7.000;2023-03-01T06:50:01;8.73;;;4.97;;
77726;SDS011;66894;51.570;7.000;2023-03-01T06:52:28;10.45;;;6.40;;
77726;SDS011;66894;51.570;7.000;2023-03-01T06:54:54;10.50;;;6.07;;
77726;SDS011;66894;51.570;7.000;2023-03-01T06:57:20;9.63;;;4.65;;
77726;SDS011;66894;51.570;7.000;2023-03-01T06:59:46;12.52;;;6.00;;
77726;SDS011;66894;51.570;7.000;2023-03-01T07:02:13;9.15;;;5.10;;
77726;SDS011;66894;51.570;7.000;2023-03-01T07:04:40;11.15;;;5.82;;
77726;SDS011;66894;51.570;7.000;2023-03-01T07:07:06;13.65;;;6.75;;
77726;SDS011;66894;51.570;7.000;2023-03-01T07:09:31;12.00;;;4.85;;
77726;SDS011;66894;51.570;7.000;2023-03-01T07:11:58;9.15;;;4.43;;
77726;SDS011;66894;51.570;7.000;2023-03-01T07:14:24;12.60;;;6.03;;
77726;SDS011;66894;51.570;7.000;2023-03-01T07:16:51;13.25;;;5.18;;
77726;SDS011;66894;51.570;7.000;2023-03-01T07:19:21;13.75;;;6.65;;
77726;SDS011;66894;51.570;7.000;2023-03-01T07:21:48;15.23;;;4.95;;
77726;SDS011;66894;51.570;7.000;2023-03-01T07:24:13;8.95;;;5.03;;
77726;SDS011;66894;51.570;7.000;2023-03-01T07:26:39;21.08;;;6.50;;
77726;SDS011;66894;51.570;7.000;2023-03-01T07:29:05;18.77;;;7.10;;
77726;SDS011;66894;51.570;7.000;2023-03-01T07:31:35;16.20;;;7.25;;
77726;SDS011;66894;51.570;7.000;2023-03-01T07:34:01;9.38;;;5.80;;
77726;SDS011;66894;51.570;7.000;2023-03-01T07:36:27;11.90;;;4.90;;
77726;SDS011;66894;51.570;7.000;2023-03-01T07:38:53;10.40;;;5.13;;
77726;SDS011;66894;51.570;7.000;2023-03-01T07:41:20;10.80;;;5.43;;
77726;SDS011;66894;51.570;7.000;2023-03-01T07:43:46;8.93;;;4.65;;
77726;SDS011;66894;51.570;7.000;2023-03-01T07:46:12;11.88;;;5.40;;
77726;SDS011;66894;51.570;7.000;2023-03-01T07:48:38;15.30;;;5.60;;
77726;SDS011;66894;51.570;7.000;2023-03-01T07:51:05;10.90;;;5.15;;
77726;SDS011;66894;51.570;7.000;2023-03-01T07:53:32;14.32;;;5.88;;
77726;SDS011;66894;51.570;7.000;2023-03-01T07:58:41;13.75;;;3.50;;
77726;SDS011;66894;51.570;7.000;2023-03-01T08:01:09;9.77;;;4.68;;
77726;SDS011;66894;51.570;7.000;2023-03-01T08:03:44;9.35;;;4.65;;
77726;SDS011;66894;51.570;7.000;2023-03-01T08:06:11;7.95;;;4.25;;
77726;SDS011;66894;51.570;7.000;2023-03-01T08:08:40;8.38;;;4.78;;
77726;SDS011;66894;51.570;7.000;2023-03-01T08:11:07;17.83;;;5.68;;
77726;SDS011;66894;51.570;7.000;2023-03-01T08:13:37;8.40;;;4.25;;
77726;SDS011;66894;51.570;7.000;2023-03-01T08:18:36;9.45;;;4.95;;
77726;SDS011;66894;51.570;7.000;2023-03-01T08:21:06;12.73;;;4.78;;
77726;SDS011;66894;51.570;7.000;2023-03-01T08:23:43;11.20;;;3.85;;
77726;SDS011;66894;51.570;7.000;2023-03-01T08:26:13;12.63;;;4.93;;
77726;SDS011;66894;51.570;7.000;2023-03-01T08:28:45;7.95;;;4.10;;
77726;SDS011;66894;51.570;7.000;2023-03-01T08:33:57;13.18;;;4.43;;
77726;SDS011;66894;51.570;7.000;2023-03-01T08:36:27;17.60;;;5.28;;
77726;SDS011;66894;51.570;7.000;2023-03-01T08:38:59;9.43;;;4.15;;
77726;SDS011;66894;51.570;7.000;2023-03-01T08:41:25;11.32;;;5.18;;
77726;SDS011;66894;51.570;7.000;2023-03-01T08:43:51;13.43;;;4.75;;
77726;SDS011;66894;51.570;7.000;2023-03-01T08:46:23;7.53;;;4.50;;
77726;SDS011;66894;51.570;7.000;2023-03-01T08:49:06;6.93;;;3.60;;
77726;SDS011;66894;51.570;7.000;2023-03-01T08:51:36;10.20;;;5.15;;
77726;SDS011;66894;51.570;7.000;2023-03-01T08:54:03;17.08;;;6.30;;
77726;SDS011;66894;51.570;7.000;2023-03-01T08:56:30;11.93;;;5.57;;
77726;SDS011;66894;51.570;7.000;2023-03-01T08:58:56;10.75;;;5.05;;
77726;SDS011;66894;51.570;7.000;2023-03-01T09:01:22;20.27;;;5.80;;
77726;SDS011;66894;51.570;7.000;2023-03-01T09:03:48;7.35;;;4.40;;
77726;SDS011;66894;51.570;7.000;2023-03-01T09:06:14;9.38;;;4.57;;
77726;SDS011;66894;51.570;7.000;2023-03-01T09:08:45;9.88;;;5.30;;
77726;SDS011;66894;51.570;7.000;2023-03-01T09:11:16;10.35;;;5.68;;
77726;SDS011;66894;51.570;7.000;2023-03-01T09:13:47;10.85;;;6.10;;
77726;SDS011;66894;51.570;7.000;2023-03-01T09:16:15;12.77;;;5.63;;
77726;SDS011;66894;51.570;7.000;2023-03-01T09:18:44;16.88;;;5.88;;
77726;SDS011;66894;51.570;7.000;2023-03-01T09:21:18;12.73;;;6.05;;
77726;SDS011;66894;51.570;7.000;2023-03-01T09:23:47;11.95;;;6.05;;
77726;SDS011;66894;51.570;7.000;2023-03-01T09:26:15;15.02;;;5.97;;
77726;SDS011;66894;51.570;7.000;2023-03-01T09:28:48;13.17;;;6.57;;
77726;SDS011;66894;51.570;7.000;2023-03-01T09:31:19;12.80;;;7.05;;
77726;SDS011;66894;51.570;7.000;2023-03-01T09:33:48;14.93;;;7.63;;
77726;SDS011;66894;51.570;7.000;2023-03-01T09:36:19;10.70;;;6.45;;
77726;SDS011;66894;51.570;7.000;2023-03-01T09:38:50;9.90;;;6.93;;
77726;SDS011;66894;51.570;7.000;2023-03-01T09:46:49;13.40;;;6.83;;
77726;SDS011;66894;51.570;7.000;2023-03-01T09:49:34;12.07;;;7.65;;
77726;SDS011;66894;51.570;7.000;2023-03-01T09:55:20;12.85;;;6.57;;
77726;SDS011;66894;51.570;7.000;2023-03-01T10:04:26;13.05;;;7.28;;
77726;SDS011;66894;51.570;7.000;2023-03-01T10:11:04;13.15;;;7.80;;
77726;SDS011;66894;51.570;7.000;2023-03-01T10:13:47;19.70;;;8.30;;
77726;SDS011;66894;51.570;7.000;2023-03-01T10:22:20;14.18;;;8.27;;
77726;SDS011;66894;51.570;7.000;2023-03-01T10:24:58;13.80;;;7.88;;
77726;SDS011;66894;51.570;7.000;2023-03-01T10:27:38;17.20;;;9.07;;
77726;SDS011;66894;51.570;7.000;2023-03-01T10:30:32;13.25;;;7.47;;
77726;SDS011;66894;51.570;7.000;2023-03-01T10:33:26;11.82;;;7.18;;
77726;SDS011;66894;51.570;7.000;2023-03-01T10:35:57;13.43;;;7.45;;
77726;SDS011;66894;51.570;7.000;2023-03-01T10:38:23;11.82;;;6.95;;
77726;SDS011;66894;51.570;7.000;2023-03-01T10:41:10;12.93;;;6.97;;
77726;SDS011;66894;51.570;7.000;2023-03-01T10:43:45;10.95;;;7.25;;
77726;SDS011;66894;51.570;7.000;2023-03-01T10:46:34;8.98;;;5.85;;
77726;SDS011;66894;51.570;7.000;2023-03-01T10:51:50;9.13;;;5.57;;
77726;SDS011;66894;51.570;7.000;2023-03-01T10:54:23;10.88;;;6.55;;
77726;SDS011;66894;51.570;7.000;2023-03-01T10:57:00;10.27;;;6.18;;
77726;SDS011;66894;51.570;7.000;2023-03-01T11:02:23;11.32;;;7.40;;
77726;SDS011;66894;51.570;7.000;2023-03-01T11:04:59;12.07;;;6.63;;
77726;SDS011;66894;51.570;7.000;2023-03-01T11:12:53;10.50;;;6.40;;
77726;SDS011;66894;51.570;7.000;2023-03-01T11:15:42;14.20;;;6.65;;
77726;SDS011;68312;53.502;10.030;2023-03-01T11:18:28;9.98;;;6.88;;
77726;SDS011;68312;53.502;10.030;2023-03-01T11:20:56;16.38;;;6.13;;
77726;SDS011;68312;53.502;10.030;2023-03-01T11:23:27;9.18;;;5.50;;
77726;SDS011;68312;53.502;10.030;2023-03-01T11:25:56;11.43;;;6.32;;
77726;SDS011;68312;53.502;10.030;2023-03-01T11:28:32;11.43;;;6.30;;
77726;SDS011;68312;53.502;10.030;2023-03-01T11:31:09;15.77;;;6.60;;
77726;SDS011;68312;53.502;10.030;2023-03-01T11:36:40;12.75;;;6.38;;
77726;SDS011;68312;53.502;10.030;2023-03-01T11:39:27;7.53;;;4.35;;
77726;SDS011;68312;53.502;10.030;2023-03-01T11:44:59;8.00;;;4.22;;
77726;SDS011;68312;53.502;10.030;2023-03-01T11:47:55;9.32;;;4.97;;
77726;SDS011;68312;53.502;10.030;2023-03-01T11:50:57;8.73;;;5.07;;
77726;SDS011;68312;53.502;10.030;2023-03-01T11:53:36;7.13;;;4.53;;
77726;SDS011;68312;53.502;10.030;2023-03-01T11:56:28;5.32;;;3.80;;
77726;SDS011;68312;53.502;10.030;2023-03-01T12:02:43;6.30;;;3.85;;
77726;SDS011;68312;53.502;10.030;2023-03-01T12:08:17;15.85;;;5.90;;
77726;SDS011;68312;53.502;10.030;2023-03-01T12:14:22;9.15;;;4.65;;
77726;SDS011;68312;53.502;10.030;2023-03-01T12:20:11;9.35;;;5.65;;
77726;SDS011;68312;53.502;10.030;2023-03-01T12:26:20;9.45;;;5.10;;
77726;SDS011;68312;53.502;10.030;2023-03-01T12:35:13;11.68;;;5.57;;
77726;SDS011;68312;53.502;10.030;2023-03-01T12:47:33;12.00;;;6.50;;
77726;SDS011;68312;53.502;10.030;2023-03-01T12:50:41;10.38;;;5.95;;
77726;SDS011;68312;53.502;10.030;2023-03-01T12:53:35;11.82;;;6.13;;
77726;SDS011;68312;53.502;10.030;2023-03-01T12:56:06;10.35;;;5.85;;
77726;SDS011;68312;53.502;10.030;2023-03-01T13:01:39;8.90;;;5.50;;
77726;SDS011;68312;53.502;10.030;2023-03-01T13:04:53;13.48;;;5.60;;
77726;SDS011;68312;53.502;10.030;2023-03-01T13:08:06;7.22;;;4.32;;
77726;SDS011;68312;53.502;10.030;2023-03-01T13:10:55;7.72;;;4.85;;
77726;SDS011;68312;53.502;10.030;2023-03-01T13:13:28;9.68;;;4.90;;
77726;SDS011;68312;53.502;10.030;2023-03-01T13:15:55;6.97;;;4.65;;
77726;SDS011;68312;53.502;10.030;2023-03-01T13:20:49;8.55;;;4.80;;
77726;SDS011;68312;53.502;10.030;2023-03-01T13:33:45;6.90;;;3.97;;
77726;SDS011;68312;53.502;10.030;2023-03-01T13:47:07;7.22;;;3.97;;
77726;SDS011;68312;53.502;10.030;2023-03-01T13:50:02;6.88;;;4.45;;
77726;SDS011;68312;53.502;10.030;2023-03-01T13:55:33;7.32;;;4.75;;
77726;SDS011;68312;53.502;10.030;2023-03-01T13:58:16;8.50;;;4.35;;
77726;SDS011;68312;53.502;10.030;2023-03-01T14:01:05;7.47;;;3.85;;
77726;SDS011;68312;53.502;10.030;2023-03-01T14:03:46;7.35;;;4.60;;
77726;SDS011;68312;53.502;10.030;2023-03-01T14:06:12;7.97;;;4.65;;
77726;SDS011;68312;53.502;10.030;2023-03-01T14:08:45;6.57;;;4.15;;
77726;SDS011;68312;53.502;10.030;2023-03-01T14:11:35;6.90;;;4.20;;
77726;SDS011;68312;53.502;10.030;2023-03-01T14:14:40;8.20;;;4.57;;
77726;SDS011;68312;53.502;10.030;2023-03-01T14:20:14;9.55;;;4.53;;
77726;SDS011;68312;53.502;10.030;2023-03-01T14:22:47;9.73;;;5.10;;
77726;SDS011;68312;53.502;10.030;2023-03-01T14:25:24;10.65;;;4.43;;
77726;SDS011;68312;53.502;10.030;2023-03-01T14:30:51;8.65;;;4.43;;
77726;SDS011;68312;53.502;10.030;2023-03-01T14:38:31;8.50;;;4.07;;
77726;SDS011;68312;53.502;10.030;2023-03-01T14:41:10;9.20;;;4.30;;
77726;SDS011;68312;53.502;10.030;2023-03-01T14:43:46;8.82;;;4.32;;
77726;SDS011;68312;53.502;10.030;2023-03-01T14:46:22;9.50;;;4.03;;
77726;SDS011;68312;53.502;10.030;2023-03-01T14:48:58;7.85;;;4.28;;
77726;SDS011;68312;53.502;10.030;2023-03-01T14:51:56;7.03;;;3.85;;
77726;SDS011;68312;53.502;10.030;2023-03-01T14:57:20;8.77;;;4.38;;
77726;SDS011;68312;53.502;10.030;2023-03-01T14:59:51;7.43;;;3.60;;
77726;SDS011;68312;53.502;10.030;2023-03-01T15:02:24;8.82;;;4.35;;
77726;SDS011;68312;53.502;10.030;2023-03-01T15:04:56;7.35;;;3.65;;
77726;SDS011;68312;53.502;10.030;2023-03-01T15:07:31;8.52;;;3.67;;
77726;SDS011;68312;53.502;10.030;2023-03-01T15:10:04;6.07;;;3.50;;
77726;SDS011;68312;53.502;10.030;2023-03-01T15:12:44;5.60;;;3.42;;
77726;SDS011;68312;53.502;10.030;2023-03-01T15:17:54;6.18;;;3.80;;
77726;SDS011;68312;53.502;10.030;2023-03-01T15:20:28;17.08;;;4.18;;
77726;SDS011;68312;53.502;10.030;2023-03-01T15:23:00;6.93;;;4.03;;
77726;SDS011;68312;53.502;10.030;2023-03-01T15:25:28;7.50;;;3.67;;
77726;SDS011;68312;53.502;10.030;2023-03-01T15:27:56;7.80;;;3.38;;
77726;SDS011;68312;53.502;10.030;2023-03-01T15:30:29;6.55;;;3.90;;
77726;SDS011;68312;53.502;10.030;2023-03-01T15:35:52;6.25;;;3.45;;
77726;SDS011;68312;53.502;10.030;2023-03-01T15:38:30;7.50;;;3.80;;
77726;SDS011;68312;53.502;10.030;2023-03-01T15:41:27;7.22;;;3.78;;
77726;SDS011;68312;53.502;10.030;2023-03-01T15:44:17;9.30;;;4.25;;
77726;SDS011;68312;53.502;10.030;2023-03-01T15:46:55;8.45;;;4.45;;
77726;SDS011;68312;53.502;10.030;2023-03-01T15:49:26;38.20;;;7.13;;
77726;SDS011;68312;53.502;10.030;2023-03-01T15:52:12;7.22;;;4.47;;
77726;SDS011;68312;53.502;10.030;2023-03-01T15:54:57;11.02;;;4.47;;
77726;SDS011;68312;53.502;10.030;2023-03-01T15:57:28;7.53;;;4.45;;
77726;SDS011;68312;53.502;10.030;2023-03-01T15:59:54;10.02;;;4.80;;
77726;SDS011;68312;53.502;10.030;2023-03-01T16:02:20;8.98;;;4.55;;
77726;SDS011;68312;53.502;10.030;2023-03-01T16:04:48;8.63;;;4.78;;
77726;SDS011;68312;53.502;10.030;2023-03-01T16:07:14;13.02;;;4.70;;
77726;SDS011;68312;53.502;10.030;2023-03-01T16:09:41;76.55;;;12.48;;
77726;SDS011;68312;53.502;10.030;2023-03-01T16:12:10;12.82;;;5.22;;
77726;SDS011;68312;53.502;10.030;2023-03-01T16:14:41;7.55;;;4.35;;
77726;SDS011;68312;53.502;10.030;2023-03-01T16:17:07;8.10;;;4.47;;
77726;SDS011;68312;53.502;10.030;2023-03-01T16:19:35;8.38;;;4.68;;
77726;SDS011;68312;53.502;10.030;2023-03-01T16:22:02;10.70;;;4.90;;
77726;SDS011;68312;53.502;10.030;2023-03-01T16:24:29;10.45;;;4.85;;
77726;SDS011;68312;53.502;10.030;2023-03-01T16:26:55;9.52;;;4.25;;
77726;SDS011;68312;53.502;10.030;2023-03-01T16:29:21;10.45;;;5.10;;
77726;SDS011;68312;53.502;10.030;2023-03-01T16:31:46;6.20;;;3.72;;
77726;SDS011;68312;53.502;10.030;2023-03-01T16:34:12;8.68;;;4.18;;
77726;SDS011;68312;53.502;10.030;2023-03-01T16:36:38;8.05;;;3.65;;
77726;SDS011;68312;53.502;10.030;2023-03-01T16:39:04;8.38;;;3.78;;
77726;SDS011;68312;53.502;10.030;2023-03-01T16:41:31;6.90;;;3.95;;
77726;SDS011;68312;53.502;10.030;2023-03-01T16:43:56;10.30;;;4.60;;
77726;SDS011;68312;53.502;10.030;2023-03-01T16:46:23;8.57;;;4.70;;
77726;SDS011;68312;53.502;10.030;2023-03-01T16:48:54;8.38;;;4.28;;
77726;SDS011;68312;53.502;10.030;2023-03-01T16:51:21;9.07;;;4.82;;
77726;SDS011;68312;53.502;10.030;2023-03-01T16:53:48;10.85;;;5.55;;
77726;SDS011;68312;53.502;10.030;2023-03-01T16:56:15;12.95;;;4.70;;
77726;SDS011;68312;53.502;10.030;2023-03-01T16:58:43;10.15;;;4.93;;
77726;SDS011;68312;53.502;10.030;2023-03-01T17:01:11;9.25;;;4.22;;
77726;SDS011;68312;53.502;10.030;2023-03-01T17:03:42;12.77;;;5.70;;
77726;SDS011;68312;53.502;10.030;2023-03-01T17:06:10;10.02;;;5.78;;
77726;SDS011;68312;53.502;10.030;2023-03-01T17:08:42;11.32;;;5.18;;
77726;SDS011;68312;53.502;10.030;2023-03-01T17:11:09;12.25;;;5.07;;
77726;SDS011;68312;53.502;10.030;2023-03-01T17:13:41;13.70;;;5.82;;
77726;SDS011;68312;53.502;10.030;2023-03-01T17:16:09;11.88;;;5.35;;
77726;SDS011;68312;53.502;10.030;2023-03-01T17:18:39;8.85;;;4.95;;
77726;SDS011;68312;53.502;10.030;2023-03-01T17:21:06;7.05;;;4.10;;
77726;SDS011;68312;53.502;10.030;2023-03-01T17:23:33;7.15;;;3.83;;
77726;SDS011;68312;53.502;10.030;2023-03-01T17:26:01;10.25;;;4.20;;
77726;SDS011;68312;53.502;10.030;2023-03-01T17:28:28;12.05;;;4.72;;
77726;SDS011;68312;53.502;10.030;2023-03-01T17:30:58;9.93;;;4.95;;
77726;SDS011;68312;53.502;10.030;2023-03-01T17:33:26;12.82;;;5.32;;